Upper Long Lake, Indiana
Current Conditions -  °F | °C
As of 3:15 PM on Friday 24 Oct 2014 (Local Time) from KGWB Reporting Station
Overcast Overcast  
Wind Chill: 61°   Ceiling: 2400
Heat Index: 61°   Visibility: 10mi
Dew Point: 46°   Wind: 3mph
Humidity: 59%   Direction: 240°WSW
Pressure: 30.02"   Gusts: NA
Location:  41.3469°N, 85.4059°W
Report Text: KGWB 241915Z AUTO 24003KT 10SM OVC024 16/08 A3002 RMK AO2
Loading
Personal Weather Stations






























Interactive Weather Map
Tropical Storm Tracking
New forecast layout! Learn more

10-Day Weather Forecast

Advertisements
Track Severe Weather on mobile